createdAt,value
2022-11-03T00:01:38.772Z,3.47
2022-11-03T00:04:07.094Z,3.65
2022-11-03T00:06:35.038Z,4.20
2022-11-03T00:09:03.892Z,4.07
2022-11-03T00:11:34.026Z,3.80
2022-11-03T00:14:01.552Z,4.20
2022-11-03T00:16:29.146Z,4.30
2022-11-03T00:18:56.784Z,4.05
2022-11-03T00:21:24.388Z,3.75
2022-11-03T00:23:52.157Z,4.40
2022-11-03T00:26:27.086Z,4.80
2022-11-03T00:29:00.533Z,4.25
2022-11-03T00:31:29.412Z,4.13
2022-11-03T00:33:57.325Z,3.63
2022-11-03T00:36:26.049Z,4.07
2022-11-03T00:38:53.817Z,4.38
2022-11-03T00:41:21.963Z,4.30
2022-11-03T00:43:49.987Z,4.03
2022-11-03T00:46:18.045Z,4.30
2022-11-03T00:48:45.568Z,4.43
2022-11-03T00:51:14.420Z,3.47
2022-11-03T00:53:44.681Z,3.90
2022-11-03T00:56:16.805Z,4.20
2022-11-03T00:58:44.733Z,3.65
2022-11-03T01:01:40.581Z,3.67
2022-11-03T01:04:30.837Z,3.47
2022-11-03T01:06:59.946Z,4.15
2022-11-03T01:09:29.057Z,3.50
2022-11-03T01:11:58.763Z,3.47
2022-11-03T01:14:27.579Z,3.70
2022-11-03T01:16:55.292Z,4.13
2022-11-03T01:19:23.620Z,3.70
2022-11-03T01:21:51.165Z,3.75
2022-11-03T01:24:19.098Z,4.10
2022-11-03T01:26:46.644Z,4.03
2022-11-03T01:29:14.205Z,3.90
2022-11-03T01:31:41.815Z,3.70
2022-11-03T01:34:13.023Z,3.70
2022-11-03T01:36:40.630Z,4.85
2022-11-03T01:39:11.771Z,4.50
2022-11-03T01:41:39.518Z,3.53
2022-11-03T01:44:09.805Z,3.72
2022-11-03T01:46:57.809Z,4.18
2022-11-03T01:49:28.438Z,3.70
2022-11-03T01:51:58.492Z,3.70
2022-11-03T01:54:27.039Z,3.83
2022-11-03T01:56:55.096Z,3.20
2022-11-03T01:59:24.892Z,3.40
2022-11-03T02:01:52.746Z,3.83
2022-11-03T02:04:23.357Z,3.50
2022-11-03T02:06:55.175Z,3.97
2022-11-03T02:09:22.738Z,3.88
2022-11-03T02:12:08.700Z,3.47
2022-11-03T02:14:37.885Z,3.65
2022-11-03T02:17:08.233Z,3.53
2022-11-03T02:19:44.346Z,3.65
2022-11-03T02:22:33.497Z,3.33
2022-11-03T02:25:07.233Z,3.17
2022-11-03T02:27:34.810Z,3.83
2022-11-03T02:30:02.351Z,3.72
2022-11-03T02:32:31.559Z,3.28
2022-11-03T02:35:02.168Z,3.72
2022-11-03T02:37:32.121Z,3.63
2022-11-03T02:40:01.999Z,4.10
2022-11-03T02:42:29.896Z,3.80
2022-11-03T02:44:58.617Z,3.30
2022-11-03T02:47:26.633Z,3.72
2022-11-03T02:52:38.422Z,3.95
2022-11-03T02:55:24.436Z,4.15
2022-11-03T02:58:07.463Z,4.20
2022-11-03T03:00:39.701Z,3.85
2022-11-03T03:03:18.203Z,3.67
2022-11-03T03:05:46.146Z,3.58
2022-11-03T03:08:14.603Z,4.13
2022-11-03T03:10:44.234Z,3.83
2022-11-03T03:13:14.744Z,3.50
2022-11-03T03:15:58.361Z,3.58
2022-11-03T03:18:36.072Z,3.53
2022-11-03T03:21:05.779Z,3.80
2022-11-03T03:23:36.608Z,3.45
2022-11-03T03:26:08.362Z,3.35
2022-11-03T03:28:39.333Z,3.58
2022-11-03T03:31:08.221Z,3.80
2022-11-03T03:33:36.227Z,4.03
2022-11-03T03:36:07.116Z,3.72
2022-11-03T03:38:37.800Z,4.00
2022-11-03T03:41:10.506Z,3.63
2022-11-03T03:43:38.746Z,3.80
2022-11-03T03:46:08.298Z,4.13
2022-11-03T03:48:35.868Z,3.92
2022-11-03T03:51:03.821Z,4.32
2022-11-03T03:53:31.594Z,4.30
2022-11-03T03:56:05.650Z,4.07
2022-11-03T03:58:33.221Z,5.00
2022-11-03T04:01:01.777Z,4.40
2022-11-03T04:03:30.299Z,4.07
2022-11-03T04:05:57.857Z,3.83
2022-11-03T04:08:25.377Z,4.13
2022-11-03T04:11:11.801Z,3.55
2022-11-03T04:14:03.613Z,3.25
2022-11-03T04:16:50.028Z,3.92
2022-11-03T04:19:36.204Z,4.05
2022-11-03T04:22:19.199Z,3.67
2022-11-03T04:24:50.588Z,3.75
2022-11-03T04:27:31.948Z,3.92
2022-11-03T04:30:15.640Z,3.55
2022-11-03T04:32:44.484Z,3.72
2022-11-03T04:35:23.156Z,3.83
2022-11-03T04:38:02.661Z,3.97
2022-11-03T04:40:30.492Z,3.80
2022-11-03T04:42:58.429Z,3.45
2022-11-03T04:45:25.936Z,3.95
2022-11-03T04:47:54.007Z,3.88
2022-11-03T04:50:23.007Z,3.75
2022-11-03T04:52:55.214Z,3.40
2022-11-03T04:55:23.018Z,3.80
2022-11-03T04:57:55.067Z,4.15
2022-11-03T05:00:22.690Z,4.10
2022-11-03T05:02:54.793Z,4.18
2022-11-03T05:05:25.894Z,3.95
2022-11-03T05:07:54.705Z,4.13
2022-11-03T05:10:24.898Z,3.88
2022-11-03T05:12:52.916Z,4.30
2022-11-03T05:15:29.027Z,4.55
2022-11-03T05:17:56.926Z,4.20
2022-11-03T05:20:35.550Z,4.07
2022-11-03T05:23:07.077Z,3.87
2022-11-03T05:25:48.594Z,4.10
2022-11-03T05:28:22.187Z,5.10
2022-11-03T05:30:50.064Z,5.80
2022-11-03T05:33:22.553Z,4.40
2022-11-03T05:35:50.123Z,4.55
2022-11-03T05:38:20.212Z,4.80
2022-11-03T05:40:50.158Z,4.30
2022-11-03T05:43:18.630Z,4.70
2022-11-03T05:45:46.365Z,3.90
2022-11-03T05:48:17.240Z,4.15
2022-11-03T05:50:45.018Z,4.60
2022-11-03T05:53:31.940Z,4.85
2022-11-03T05:56:01.188Z,4.65
2022-11-03T05:58:47.335Z,4.50
2022-11-03T06:01:26.980Z,4.78
2022-11-03T06:03:54.814Z,4.75
2022-11-03T06:06:40.406Z,4.95
2022-11-03T06:09:17.233Z,4.65
2022-11-03T06:11:45.054Z,4.57
2022-11-03T06:14:24.045Z,4.32
2022-11-03T06:16:57.339Z,4.47
2022-11-03T06:19:29.852Z,5.28
2022-11-03T06:22:03.670Z,5.00
2022-11-03T06:24:32.010Z,4.93
2022-11-03T06:26:59.741Z,5.32
2022-11-03T06:29:27.334Z,5.25
2022-11-03T06:31:57.864Z,4.80
2022-11-03T06:34:25.360Z,4.90
2022-11-03T06:36:53.035Z,4.85
2022-11-03T06:39:26.320Z,4.85
2022-11-03T06:41:53.968Z,5.50
2022-11-03T06:44:24.890Z,4.63
2022-11-03T06:46:57.304Z,5.13
2022-11-03T06:49:31.043Z,5.22
2022-11-03T06:51:59.982Z,5.20
2022-11-03T06:54:27.534Z,4.88
2022-11-03T06:56:55.089Z,4.90
2022-11-03T06:59:22.636Z,5.10
2022-11-03T07:01:54.821Z,6.68
2022-11-03T07:04:23.408Z,6.18
2022-11-03T07:06:53.620Z,7.57
2022-11-03T07:09:28.181Z,6.78
2022-11-03T07:11:59.973Z,7.20
2022-11-03T07:14:33.079Z,6.93
2022-11-03T07:17:03.034Z,7.57
2022-11-03T07:19:34.056Z,7.25
2022-11-03T07:22:03.246Z,7.70
2022-11-03T07:24:33.626Z,8.05
2022-11-03T07:27:14.508Z,6.97
2022-11-03T07:29:42.448Z,7.30
2022-11-03T07:32:30.335Z,7.07
2022-11-03T07:35:05.009Z,8.80
2022-11-03T07:37:32.597Z,7.05
2022-11-03T07:40:00.216Z,7.20
2022-11-03T07:42:28.189Z,6.82
2022-11-03T07:45:00.935Z,6.68
2022-11-03T07:47:28.799Z,6.95
2022-11-03T07:49:56.838Z,6.82
2022-11-03T07:52:26.541Z,6.50
2022-11-03T07:54:55.914Z,6.63
2022-11-03T07:57:32.660Z,6.05
2022-11-03T08:00:10.647Z,7.00
2022-11-03T08:02:56.877Z,6.38
2022-11-03T08:05:24.616Z,5.72
2022-11-03T08:07:52.258Z,7.22
2022-11-03T08:10:21.309Z,6.78
2022-11-03T08:12:48.866Z,6.30
2022-11-03T08:15:16.411Z,5.50
2022-11-03T08:17:43.908Z,5.50
2022-11-03T08:20:11.798Z,5.70
2022-11-03T08:22:39.345Z,6.82
2022-11-03T08:25:07.202Z,6.32
2022-11-03T08:27:34.796Z,7.05
2022-11-03T08:30:02.711Z,7.30
2022-11-03T08:32:30.305Z,7.63
2022-11-03T08:34:58.185Z,6.25
2022-11-03T08:37:25.750Z,6.65
2022-11-03T08:39:53.329Z,6.97
2022-11-03T08:42:20.825Z,6.82
2022-11-03T08:44:48.455Z,6.18
2022-11-03T08:47:18.039Z,7.00
2022-11-03T08:49:45.610Z,6.38
2022-11-03T08:52:13.192Z,6.00
2022-11-03T08:54:42.433Z,6.07
2022-11-03T08:57:10.831Z,6.43
2022-11-03T08:59:38.609Z,6.00
2022-11-03T09:02:06.489Z,6.32
2022-11-03T09:04:34.089Z,5.65
2022-11-03T09:07:01.737Z,6.25
2022-11-03T09:12:16.880Z,6.07
2022-11-03T09:14:44.905Z,6.47
2022-11-03T09:17:12.421Z,5.43
2022-11-03T09:19:39.978Z,6.20
2022-11-03T09:22:07.526Z,5.30
2022-11-03T09:24:35.103Z,4.95
2022-11-03T09:27:03.034Z,4.63
2022-11-03T09:29:51.615Z,3.97
2022-11-03T09:32:23.013Z,4.03
2022-11-03T09:34:51.263Z,4.05
2022-11-03T09:37:18.824Z,3.63
2022-11-03T09:39:46.448Z,3.70
2022-11-03T09:42:14.346Z,3.15
2022-11-03T09:44:41.991Z,3.30
2022-11-03T09:47:12.522Z,3.60
2022-11-03T09:49:40.101Z,3.70
2022-11-03T09:52:07.649Z,3.53
2022-11-03T09:54:35.233Z,3.65
2022-11-03T09:57:06.845Z,4.45
2022-11-03T09:59:34.388Z,6.53
2022-11-03T10:02:02.049Z,8.05
2022-11-03T10:04:31.107Z,7.75
2022-11-03T10:06:59.461Z,7.85
2022-11-03T10:09:29.524Z,8.50
2022-11-03T10:11:57.113Z,9.30
2022-11-03T10:14:24.646Z,9.07
2022-11-03T10:17:02.341Z,8.18
2022-11-03T10:19:30.114Z,9.07
2022-11-03T10:21:57.724Z,8.48
2022-11-03T10:24:25.898Z,8.88
2022-11-03T10:26:57.234Z,8.75
2022-11-03T10:29:25.768Z,8.63
2022-11-03T10:31:58.399Z,8.32
2022-11-03T10:34:36.612Z,8.57
2022-11-03T10:37:22.950Z,7.85
2022-11-03T10:39:52.051Z,7.25
2022-11-03T10:42:20.374Z,6.90
2022-11-03T10:44:48.426Z,6.53
2022-11-03T10:47:24.202Z,7.57
2022-11-03T10:49:51.944Z,6.18
2022-11-03T10:52:21.433Z,6.35
2022-11-03T10:54:49.837Z,5.35
2022-11-03T10:57:17.561Z,5.43
2022-11-03T10:59:48.703Z,5.32
2022-11-03T11:02:18.648Z,4.72
2022-11-03T11:04:50.353Z,5.57
2022-11-03T11:07:47.645Z,5.03
2022-11-03T11:10:15.668Z,5.40
2022-11-03T11:13:02.659Z,5.57
2022-11-03T11:15:43.607Z,4.63
2022-11-03T11:18:11.489Z,5.27
2022-11-03T11:20:41.498Z,4.93
2022-11-03T11:23:27.891Z,5.15
2022-11-03T11:26:10.879Z,4.63
2022-11-03T11:28:42.669Z,5.85
2022-11-03T11:33:37.737Z,5.43
2022-11-03T11:36:06.118Z,6.05
2022-11-03T11:38:49.154Z,5.35
2022-11-03T11:41:16.832Z,5.93
2022-11-03T11:43:44.476Z,5.47
2022-11-03T11:46:24.234Z,5.32
2022-11-03T11:48:58.090Z,5.32
2022-11-03T11:51:25.909Z,5.40
2022-11-03T11:54:16.750Z,5.40
2022-11-03T11:56:47.432Z,5.55
2022-11-03T11:59:26.025Z,5.10
2022-11-03T12:01:55.987Z,5.40
2022-11-03T12:04:25.852Z,5.40
2022-11-03T12:06:53.536Z,5.75
2022-11-03T12:09:23.213Z,5.25
2022-11-03T12:11:55.347Z,5.05
2022-11-03T12:14:24.006Z,5.68
2022-11-03T12:16:52.350Z,5.53
2022-11-03T12:19:35.163Z,5.30
2022-11-03T12:22:03.203Z,5.35
2022-11-03T12:24:33.922Z,5.43
2022-11-03T12:27:01.542Z,5.25
2022-11-03T12:29:29.088Z,5.75
2022-11-03T12:31:56.644Z,5.32
2022-11-03T12:34:24.265Z,5.18
2022-11-03T12:36:55.994Z,5.00
2022-11-03T12:39:23.982Z,4.97
2022-11-03T12:41:51.509Z,5.10
2022-11-03T12:44:19.135Z,5.20
2022-11-03T12:46:47.000Z,5.15
2022-11-03T12:49:14.524Z,4.95
2022-11-03T12:51:42.066Z,5.10
2022-11-03T12:54:09.583Z,4.95
2022-11-03T12:56:37.122Z,6.32
2022-11-03T12:59:04.694Z,5.53
2022-11-03T13:01:33.127Z,5.30
2022-11-03T13:04:00.963Z,5.72
2022-11-03T13:06:29.480Z,5.80
2022-11-03T13:08:57.014Z,5.65
2022-11-03T13:11:43.044Z,5.55
2022-11-03T13:14:10.664Z,6.32
2022-11-03T13:16:38.586Z,5.38
2022-11-03T13:19:06.098Z,5.65
2022-11-03T13:21:33.656Z,6.53
2022-11-03T13:24:01.206Z,6.13
2022-11-03T13:26:28.789Z,6.78
2022-11-03T13:28:56.306Z,5.70
2022-11-03T13:31:23.904Z,6.05
2022-11-03T13:33:52.231Z,5.75
2022-11-03T13:36:19.991Z,5.72
2022-11-03T13:38:47.558Z,5.38
2022-11-03T13:41:15.204Z,5.32
2022-11-03T13:43:42.760Z,5.93
2022-11-03T13:46:12.730Z,5.28
2022-11-03T13:51:27.826Z,5.78
2022-11-03T13:59:30.653Z,6.35
2022-11-03T14:04:45.745Z,6.10
2022-11-03T14:07:13.340Z,5.97
2022-11-03T14:09:40.938Z,5.57
2022-11-03T14:12:27.617Z,5.82
2022-11-03T14:14:55.196Z,6.55
2022-11-03T14:17:22.803Z,5.90
2022-11-03T14:19:52.641Z,6.65
2022-11-03T14:22:21.463Z,6.05
2022-11-03T14:24:49.185Z,6.38
2022-11-03T14:27:17.003Z,6.35
2022-11-03T14:29:44.892Z,6.22
2022-11-03T14:32:12.710Z,6.13
2022-11-03T14:34:40.350Z,6.35
2022-11-03T14:37:10.855Z,6.40
2022-11-03T14:39:38.480Z,5.82
2022-11-03T14:42:08.434Z,6.53
2022-11-03T14:44:37.104Z,6.22
2022-11-03T14:47:05.780Z,7.15
2022-11-03T14:49:34.039Z,7.53
2022-11-03T14:52:02.591Z,6.68
2022-11-03T14:54:31.835Z,6.95
2022-11-03T14:56:59.745Z,7.60
2022-11-03T14:59:27.330Z,7.47
2022-11-03T15:01:55.457Z,7.47
2022-11-03T15:04:23.130Z,7.90
2022-11-03T15:06:50.947Z,7.47
2022-11-03T15:09:19.477Z,8.18
2022-11-03T15:11:47.218Z,8.13
2022-11-03T15:14:15.762Z,7.47
2022-11-03T15:16:45.699Z,8.23
2022-11-03T15:19:13.489Z,8.55
2022-11-03T15:21:41.110Z,9.18
2022-11-03T15:26:56.304Z,7.82
2022-11-03T15:29:23.974Z,8.15
2022-11-03T15:31:51.898Z,7.90
2022-11-03T15:34:19.488Z,8.55
2022-11-03T15:36:47.006Z,9.07
2022-11-03T15:39:14.563Z,8.80
2022-11-03T15:41:42.089Z,8.02
2022-11-03T15:44:09.951Z,8.75
2022-11-03T15:46:37.537Z,9.77
2022-11-03T15:49:05.136Z,9.98
2022-11-03T15:51:32.734Z,10.23
2022-11-03T15:54:00.298Z,8.88
2022-11-03T15:56:27.978Z,10.18
2022-11-03T15:58:55.617Z,10.43
2022-11-03T16:01:23.337Z,10.45
2022-11-03T16:03:51.055Z,10.80
2022-11-03T16:06:18.581Z,11.20
2022-11-03T16:08:46.117Z,11.38
2022-11-03T16:11:14.221Z,11.05
2022-11-03T16:13:41.957Z,12.23
2022-11-03T16:16:09.514Z,12.65
2022-11-03T16:18:38.446Z,12.35
2022-11-03T16:21:06.071Z,12.55
2022-11-03T16:23:33.606Z,12.90
2022-11-03T16:26:04.304Z,13.48
2022-11-03T16:28:31.903Z,12.75
2022-11-03T16:30:59.449Z,13.75
2022-11-03T16:33:27.042Z,13.45
2022-11-03T16:35:54.574Z,13.05
2022-11-03T16:38:22.112Z,13.30
2022-11-03T16:40:49.636Z,13.57
2022-11-03T16:43:17.164Z,14.73
2022-11-03T16:45:44.698Z,13.13
2022-11-03T16:48:12.286Z,14.70
2022-11-03T16:50:41.612Z,13.93
2022-11-03T16:53:12.099Z,13.93
2022-11-03T16:55:39.672Z,14.18
2022-11-03T16:58:07.217Z,14.38
2022-11-03T17:00:34.726Z,13.90
2022-11-03T17:03:02.281Z,13.40
2022-11-03T17:05:29.814Z,14.38
2022-11-03T17:07:57.498Z,14.70
2022-11-03T17:10:27.106Z,14.60
2022-11-03T17:12:54.683Z,14.55
2022-11-03T17:15:22.241Z,14.52
2022-11-03T17:17:49.900Z,15.55
2022-11-03T17:20:17.832Z,14.63
2022-11-03T17:22:45.424Z,14.63
2022-11-03T17:25:12.949Z,13.77
2022-11-03T17:27:48.443Z,13.77
2022-11-03T17:30:22.261Z,15.02
2022-11-03T17:32:51.111Z,14.77
2022-11-03T17:35:21.616Z,14.40
2022-11-03T17:37:50.024Z,13.77
2022-11-03T17:40:18.915Z,14.30
2022-11-03T17:42:46.882Z,13.70
2022-11-03T17:45:15.072Z,14.30
2022-11-03T17:47:43.462Z,13.82
2022-11-03T17:50:14.802Z,13.82
2022-11-03T17:52:43.033Z,13.38
2022-11-03T17:55:30.615Z,13.35
2022-11-03T17:58:02.346Z,13.88
2022-11-03T18:00:30.376Z,12.85
2022-11-03T18:02:58.012Z,12.73
2022-11-03T18:05:26.883Z,12.48
2022-11-03T18:07:55.290Z,13.75
2022-11-03T18:10:24.164Z,13.20
2022-11-03T18:13:10.949Z,12.48
2022-11-03T18:15:39.877Z,13.80
2022-11-03T18:18:18.725Z,12.48
2022-11-03T18:20:52.709Z,12.27
2022-11-03T18:23:25.463Z,12.52
2022-11-03T18:25:54.064Z,11.63
2022-11-03T18:28:21.985Z,11.77
2022-11-03T18:30:51.799Z,11.75
2022-11-03T18:33:23.195Z,11.27
2022-11-03T18:35:51.243Z,11.25
2022-11-03T18:38:18.845Z,11.70
2022-11-03T18:40:46.473Z,11.73
2022-11-03T18:43:15.317Z,11.15
2022-11-03T18:45:42.956Z,10.85
2022-11-03T18:48:14.998Z,10.82
2022-11-03T18:50:42.550Z,10.73
2022-11-03T18:53:13.581Z,10.93
2022-11-03T18:55:41.212Z,11.83
2022-11-03T18:58:13.505Z,10.93
2022-11-03T19:00:41.410Z,11.45
2022-11-03T19:03:16.359Z,11.18
2022-11-03T19:05:44.669Z,11.55
2022-11-03T19:08:16.557Z,11.50
2022-11-03T19:13:15.055Z,10.68
2022-11-03T19:15:42.661Z,10.25
2022-11-03T19:18:11.130Z,10.45
2022-11-03T19:20:39.223Z,11.30
2022-11-03T19:23:07.060Z,11.10
2022-11-03T19:25:36.347Z,10.95
2022-11-03T19:28:04.008Z,10.85
2022-11-03T19:30:31.534Z,10.00
2022-11-03T19:32:59.123Z,10.60
2022-11-03T19:35:29.709Z,11.27
2022-11-03T19:38:10.923Z,10.48
2022-11-03T19:40:39.094Z,10.20
2022-11-03T19:43:09.413Z,10.95
2022-11-03T19:45:36.997Z,10.98
2022-11-03T19:50:54.000Z,10.30
2022-11-03T19:53:26.181Z,10.60
2022-11-03T19:55:54.123Z,11.65
2022-11-03T19:58:22.979Z,11.73
2022-11-03T20:00:50.946Z,10.57
2022-11-03T20:03:18.669Z,13.30
2022-11-03T20:05:49.625Z,12.00
2022-11-03T20:08:22.008Z,12.40
2022-11-03T20:10:49.757Z,10.73
2022-11-03T20:13:18.687Z,11.00
2022-11-03T20:15:46.727Z,11.02
2022-11-03T20:18:14.944Z,10.93
2022-11-03T20:20:43.430Z,11.13
2022-11-03T20:23:40.409Z,10.75
2022-11-03T20:26:13.420Z,10.43
2022-11-03T20:28:40.997Z,10.32
2022-11-03T20:31:08.762Z,10.45
2022-11-03T20:33:37.306Z,10.80
2022-11-03T20:36:04.901Z,10.50
2022-11-03T20:38:33.313Z,11.30
2022-11-03T20:41:03.344Z,10.55
2022-11-03T20:43:36.297Z,11.15
2022-11-03T20:46:04.999Z,10.27
2022-11-03T20:48:32.566Z,9.75
2022-11-03T20:51:00.979Z,10.18
2022-11-03T20:53:28.529Z,10.60
2022-11-03T20:55:56.116Z,10.27
2022-11-03T20:58:23.660Z,10.43
2022-11-03T21:00:51.410Z,10.15
2022-11-03T21:06:16.471Z,9.95
2022-11-03T21:08:44.789Z,10.40
2022-11-03T21:11:29.253Z,10.75
2022-11-03T21:13:58.572Z,10.35
2022-11-03T21:16:45.690Z,10.68
2022-11-03T21:19:39.134Z,9.68
2022-11-03T21:22:30.884Z,9.70
2022-11-03T21:25:02.122Z,9.73
2022-11-03T21:27:29.714Z,9.80
2022-11-03T21:29:59.677Z,9.88
2022-11-03T21:32:27.990Z,9.38
2022-11-03T21:34:55.573Z,10.13
2022-11-03T21:37:23.213Z,9.95
2022-11-03T21:39:50.735Z,9.48
2022-11-03T21:42:37.049Z,9.07
2022-11-03T21:45:05.148Z,9.20
2022-11-03T21:47:32.706Z,9.52
2022-11-03T21:52:32.782Z,8.95
2022-11-03T21:55:01.029Z,9.60
2022-11-03T21:57:28.997Z,9.82
2022-11-03T21:59:59.436Z,8.75
2022-11-03T22:02:29.753Z,10.05
2022-11-03T22:04:57.462Z,8.55
2022-11-03T22:07:25.093Z,9.15
2022-11-03T22:09:52.617Z,8.80
2022-11-03T22:12:20.154Z,8.82
2022-11-03T22:15:06.518Z,8.60
2022-11-03T22:17:34.103Z,8.82
2022-11-03T22:20:27.902Z,8.35
2022-11-03T22:23:14.208Z,8.82
2022-11-03T22:26:00.549Z,8.93
2022-11-03T22:28:28.086Z,8.85
2022-11-03T22:31:14.138Z,8.40
2022-11-03T22:34:00.528Z,8.20
2022-11-03T22:36:28.432Z,8.68
2022-11-03T22:39:14.823Z,8.43
2022-11-03T22:42:06.054Z,10.05
2022-11-03T22:44:53.089Z,9.95
2022-11-03T22:47:20.629Z,9.68
2022-11-03T22:49:48.231Z,10.48
2022-11-03T22:52:15.736Z,9.88
2022-11-03T22:54:43.314Z,10.25
2022-11-03T22:57:13.978Z,8.63
2022-11-03T22:59:41.494Z,10.02
2022-11-03T23:02:09.167Z,10.98
2022-11-03T23:04:36.869Z,10.80
2022-11-03T23:07:04.420Z,11.25
2022-11-03T23:09:31.980Z,10.50
2022-11-03T23:11:59.539Z,10.05
2022-11-03T23:14:47.072Z,9.18
2022-11-03T23:17:14.613Z,8.63
2022-11-03T23:20:01.061Z,9.60
2022-11-03T23:22:28.573Z,8.30
2022-11-03T23:24:59.151Z,7.72
2022-11-03T23:27:26.743Z,7.30
2022-11-03T23:29:54.452Z,7.00
2022-11-03T23:32:22.018Z,5.55
2022-11-03T23:34:50.064Z,4.50
2022-11-03T23:37:17.615Z,4.03
2022-11-03T23:39:45.139Z,3.78
2022-11-03T23:42:12.674Z,4.20
2022-11-03T23:44:59.083Z,4.15
2022-11-03T23:47:45.358Z,4.00
2022-11-03T23:50:12.896Z,4.32
2022-11-03T23:52:40.399Z,5.07
2022-11-03T23:55:08.173Z,4.10
2022-11-03T23:57:54.505Z,4.30
